Time;durP1;ratioP1;P1;durP2;ratioP2;P2;SDS_P1;SDS_P2;PMS_P1;PMS_P2;Temp;Humidity;BMP_temperature;BMP_pressure;BME280_temperature;BME280_humidity;BME280_pressure;Samples;Min_cycle;Max_cycle;Signal;HPM_P1;HPM_P2
2022/08/13 00:02:11;;;;;;;4.05;0.80;;;22.10;49.60;;;;;;5045076;27;45185;-76
2022/08/13 00:04:40;;;;;;;2.58;0.82;;;21.90;50.70;;;;;;5044787;28;45404;-76
2022/08/13 00:07:09;;;;;;;2.80;0.90;;;21.50;52.10;;;;;;5044522;28;46204;-76
2022/08/13 00:09:52;;;;;;;3.08;0.85;;;21.30;51.80;;;;;;5044350;27;45370;-76
2022/08/13 00:15:10;;;;;;;2.17;0.85;;;21.20;52.60;;;;;;5039288;28;45293;-78
2022/08/13 00:17:37;;;;;;;1.08;0.80;;;21.20;52.20;;;;;;5024995;28;45285;-76
2022/08/13 00:20:06;;;;;;;7.00;1.00;;;21.10;52.20;;;;;;5033078;27;45622;-76
2022/08/13 00:22:35;;;;;;;2.28;1.33;;;21.20;52.70;;;;;;5044825;28;45151;-76
2022/08/13 00:25:06;;;;;;;5.32;1.02;;;21.20;52.80;;;;;;5044642;28;45513;-76
2022/08/13 00:27:32;;;;;;;5.53;0.90;;;21.20;53.50;;;;;;5064274;28;46932;-76
2022/08/13 00:29:59;;;;;;;1.48;1.23;;;21.20;52.90;;;;;;5064735;28;45242;-76
2022/08/13 00:32:29;;;;;;;4.78;0.82;;;21.30;53.30;;;;;;5064865;28;45252;-76
2022/08/13 00:34:57;;;;;;;2.60;0.80;;;21.40;52.60;;;;;;5065298;28;45368;-75
2022/08/13 00:37:25;;;;;;;1.17;0.77;;;21.40;52.70;;;;;;5061316;27;47525;-76
2022/08/13 00:39:54;;;;;;;4.72;0.90;;;21.50;52.10;;;;;;5041529;28;45437;-75
2022/08/13 00:42:22;;;;;;;1.45;0.93;;;21.50;52.30;;;;;;5024268;28;45322;-76
2022/08/13 00:44:49;;;;;;;4.45;1.10;;;21.50;52.20;;;;;;5024203;28;45432;-76
2022/08/13 00:50:01;;;;;;;2.92;1.10;;;21.40;52.30;;;;;;5024640;28;45249;-75
2022/08/13 00:52:30;;;;;;;3.33;0.80;;;21.40;52.40;;;;;;5024287;28;45237;-76
2022/08/13 00:55:00;;;;;;;1.38;1.00;;;21.40;52.40;;;;;;5024303;28;45383;-76
2022/08/13 00:57:28;;;;;;;1.17;0.80;;;21.30;53.10;;;;;;5023985;28;48465;-76
2022/08/13 00:59:56;;;;;;;1.25;0.90;;;21.30;53.20;;;;;;5023953;28;46029;-76
2022/08/13 01:02:25;;;;;;;4.72;1.17;;;21.30;52.70;;;;;;5024186;28;45373;-76
2022/08/13 01:04:52;;;;;;;1.10;0.80;;;21.50;52.60;;;;;;5024053;28;45215;-75
2022/08/13 01:07:20;;;;;;;1.35;1.02;;;21.40;52.80;;;;;;5024065;28;47598;-76
2022/08/13 01:09:47;;;;;;;2.65;0.95;;;21.30;53.30;;;;;;5024024;28;45429;-76
2022/08/13 01:12:19;;;;;;;4.13;0.95;;;21.20;53.70;;;;;;5024209;28;45071;-75
2022/08/13 01:14:49;;;;;;;1.83;1.05;;;21.20;53.70;;;;;;5023795;28;45764;-76
2022/08/13 01:17:22;;;;;;;1.98;1.02;;;21.10;53.70;;;;;;5033429;28;45351;-76
2022/08/13 01:19:50;;;;;;;1.90;0.88;;;21.10;53.60;;;;;;5044193;27;45312;-76
2022/08/13 01:22:18;;;;;;;2.30;0.80;;;20.70;54.90;;;;;;5043860;27;45213;-76
2022/08/13 01:24:45;;;;;;;4.13;1.00;;;20.40;55.90;;;;;;5043845;27;45219;-76
2022/08/13 01:27:13;;;;;;;5.25;1.00;;;20.30;57.50;;;;;;5041954;27;46574;-76
2022/08/13 01:29:40;;;;;;;1.67;0.88;;;20.10;58.50;;;;;;5023783;28;45331;-76
2022/08/13 01:32:08;;;;;;;2.97;1.00;;;19.80;59.60;;;;;;5024023;28;45149;-76
2022/08/13 01:34:35;;;;;;;1.45;1.00;;;19.60;60.00;;;;;;5028205;28;45440;-76
2022/08/13 01:37:02;;;;;;;1.85;1.08;;;19.70;60.10;;;;;;5038681;27;46354;-75
2022/08/13 01:39:30;;;;;;;1.90;0.95;;;19.70;60.50;;;;;;5043177;28;45079;-76
2022/08/13 01:41:58;;;;;;;4.05;1.00;;;19.60;59.20;;;;;;5111576;27;45215;-76
2022/08/13 01:44:26;;;;;;;3.47;1.13;;;19.40;59.70;;;;;;5127784;27;45564;-75
2022/08/13 01:52:34;;;;;;;5.85;0.98;;;19.30;60.30;;;;;;5127781;27;45400;-75
2022/08/13 01:55:04;;;;;;;7.20;1.10;;;19.20;60.60;;;;;;5064177;27;45652;-75
2022/08/13 01:57:33;;;;;;;3.95;1.00;;;19.30;60.50;;;;;;5082184;27;45903;-75
2022/08/13 02:00:01;;;;;;;2.10;0.82;;;19.30;60.70;;;;;;5042949;28;45222;-75
2022/08/13 02:02:28;;;;;;;2.85;1.23;;;19.30;61.00;;;;;;5042939;28;45194;-75
2022/08/13 02:04:56;;;;;;;3.92;1.20;;;19.40;61.00;;;;;;5043233;28;45346;-75
2022/08/13 02:07:23;;;;;;;4.72;0.88;;;19.40;60.90;;;;;;5022926;28;48160;-75
2022/08/13 02:09:52;;;;;;;1.77;0.95;;;19.20;61.70;;;;;;5046138;27;45141;-75
2022/08/13 02:12:20;;;;;;;2.90;1.17;;;19.30;60.70;;;;;;5042387;28;45203;-75
2022/08/13 02:14:47;;;;;;;8.40;1.33;;;19.60;59.90;;;;;;5039194;28;45514;-76
2022/08/13 02:17:25;;;;;;;5.00;1.08;;;19.70;59.20;;;;;;5025050;28;46571;-75
2022/08/13 02:19:54;;;;;;;3.90;1.00;;;19.90;58.70;;;;;;5025405;28;45752;-75
2022/08/13 02:22:23;;;;;;;5.22;1.30;;;19.90;58.60;;;;;;5022473;28;45334;-75
2022/08/13 02:24:52;;;;;;;6.30;1.02;;;19.90;58.10;;;;;;5029545;28;45240;-75
2022/08/13 02:27:21;;;;;;;4.20;1.05;;;19.90;58.10;;;;;;5047975;27;45443;-76
2022/08/13 02:29:48;;;;;;;5.93;1.10;;;19.90;58.30;;;;;;5042378;27;46022;-75
2022/08/13 02:32:16;;;;;;;2.88;1.27;;;19.90;58.20;;;;;;5042070;28;45388;-75
2022/08/13 02:34:44;;;;;;;1.17;0.95;;;19.90;58.10;;;;;;5042693;27;45394;-75
2022/08/13 02:37:12;;;;;;;1.80;0.95;;;19.90;58.10;;;;;;5042320;28;45413;-75
2022/08/13 02:39:39;;;;;;;6.07;1.17;;;19.90;58.00;;;;;;5042278;28;45273;-75
2022/08/13 02:42:06;;;;;;;2.78;1.00;;;19.90;57.90;;;;;;5032966;28;45407;-77
2022/08/13 02:44:34;;;;;;;2.30;1.02;;;19.90;58.20;;;;;;5022562;28;45536;-76
2022/08/13 02:47:03;;;;;;;6.03;1.40;;;19.80;58.30;;;;;;5022235;28;45514;-75
2022/08/13 02:49:31;;;;;;;1.83;1.05;;;19.70;58.50;;;;;;5022589;28;45275;-75
2022/08/13 02:51:59;;;;;;;1.60;1.40;;;19.70;59.00;;;;;;5022446;28;45208;-75
2022/08/13 02:54:28;;;;;;;3.55;1.20;;;19.60;59.40;;;;;;5022475;28;45262;-76
2022/08/13 02:56:55;;;;;;;1.70;1.20;;;19.50;59.70;;;;;;5022107;28;48432;-76
2022/08/13 02:59:24;;;;;;;4.30;1.25;;;19.50;59.80;;;;;;5022219;28;46411;-75
2022/08/13 03:02:06;;;;;;;1.77;1.35;;;19.40;59.90;;;;;;5022326;28;45474;-75
2022/08/13 03:04:34;;;;;;;2.20;1.10;;;19.40;59.90;;;;;;5031293;28;45626;-75
2022/08/13 03:07:08;;;;;;;3.90;1.05;;;19.60;59.60;;;;;;5062120;28;47083;-72
2022/08/13 03:09:36;;;;;;;1.80;1.02;;;19.60;60.00;;;;;;5057883;28;45402;-75
2022/08/13 03:12:07;;;;;;;3.97;1.40;;;19.50;59.90;;;;;;5041267;28;45374;-75
2022/08/13 03:14:36;;;;;;;4.85;1.30;;;19.60;59.80;;;;;;5022638;28;45309;-75
2022/08/13 03:17:05;;;;;;;2.47;1.35;;;19.60;60.00;;;;;;5021807;28;47529;-75
2022/08/13 03:19:31;;;;;;;3.30;1.27;;;19.60;59.70;;;;;;5021754;28;45206;-75
2022/08/13 03:22:01;;;;;;;8.80;1.50;;;19.60;59.80;;;;;;5038370;28;45185;-75
2022/08/13 03:24:28;;;;;;;2.47;1.52;;;19.50;59.90;;;;;;5038978;28;45411;-75
2022/08/13 03:26:55;;;;;;;5.43;1.55;;;19.40;60.30;;;;;;5024323;28;46668;-75
2022/08/13 03:29:22;;;;;;;4.07;1.50;;;19.40;60.50;;;;;;5037406;28;45341;-75
2022/08/13 03:31:50;;;;;;;1.98;1.67;;;19.40;60.40;;;;;;5044902;28;45364;-75
2022/08/13 03:34:20;;;;;;;3.05;1.60;;;19.40;60.40;;;;;;5045505;27;45550;-75
2022/08/13 03:36:47;;;;;;;4.05;1.60;;;19.30;60.60;;;;;;5044902;28;45443;-75
2022/08/13 03:39:14;;;;;;;5.43;1.45;;;19.20;61.00;;;;;;5044926;28;45330;-75
2022/08/13 03:41:40;;;;;;;5.15;1.45;;;19.10;61.00;;;;;;5044689;28;45294;-75
2022/08/13 03:44:07;;;;;;;4.35;1.65;;;19.10;61.80;;;;;;5044844;28;45239;-75
2022/08/13 03:46:34;;;;;;;6.53;1.90;;;19.00;61.90;;;;;;5044462;27;46388;-75
2022/08/13 03:49:01;;;;;;;3.17;1.58;;;19.00;62.20;;;;;;5044561;28;45863;-75
2022/08/13 03:51:30;;;;;;;5.82;1.35;;;19.00;62.20;;;;;;5095843;27;45379;-75
2022/08/13 03:53:59;;;;;;;2.65;1.60;;;18.90;62.80;;;;;;5106913;27;45202;-76
2022/08/13 03:56:26;;;;;;;4.63;1.65;;;18.80;63.00;;;;;;5044641;28;46645;-76
2022/08/13 03:58:54;;;;;;;3.45;1.50;;;18.80;63.30;;;;;;5044825;28;45190;-75
2022/08/13 04:01:21;;;;;;;4.20;1.58;;;18.80;64.00;;;;;;5044774;28;45343;-75
2022/08/13 04:03:48;;;;;;;3.33;1.75;;;19.00;63.70;;;;;;5072630;27;45555;-75
2022/08/13 04:06:17;;;;;;;2.60;1.48;;;19.00;63.30;;;;;;5024051;28;47794;-75
2022/08/13 04:08:47;;;;;;;5.22;1.50;;;18.80;64.00;;;;;;5039544;28;45564;-75
2022/08/13 04:11:17;;;;;;;2.67;1.50;;;18.90;64.20;;;;;;5054531;28;45203;-75
2022/08/13 04:13:45;;;;;;;2.33;1.40;;;19.00;63.90;;;;;;5055016;28;45167;-75
2022/08/13 04:16:15;;;;;;;4.45;1.38;;;19.00;64.20;;;;;;5043992;28;47178;-75
2022/08/13 04:18:43;;;;;;;5.88;1.85;;;19.00;63.70;;;;;;5043984;28;45992;-75
2022/08/13 04:21:12;;;;;;;4.40;1.60;;;19.00;63.60;;;;;;5044390;28;45445;-75
2022/08/13 04:23:43;;;;;;;6.35;1.83;;;19.00;63.40;;;;;;5038982;27;45413;-75
2022/08/13 04:26:14;;;;;;;2.75;1.70;;;18.90;63.80;;;;;;5023921;27;46513;-75
2022/08/13 04:28:41;;;;;;;3.90;1.70;;;19.00;63.30;;;;;;5037318;28;45917;-75
2022/08/13 04:31:09;;;;;;;5.28;1.52;;;18.90;63.00;;;;;;5043953;27;45396;-75
2022/08/13 04:33:37;;;;;;;3.20;1.77;;;18.90;63.60;;;;;;5043716;27;45291;-75
2022/08/13 04:36:05;;;;;;;1.45;1.33;;;18.90;63.10;;;;;;5043428;28;46463;-75
2022/08/13 04:38:31;;;;;;;6.22;1.90;;;18.90;63.70;;;;;;5044141;28;45437;-75
2022/08/13 04:40:58;;;;;;;2.70;1.40;;;19.10;63.30;;;;;;5043808;28;45379;-75
2022/08/13 04:43:26;;;;;;;5.38;1.67;;;19.30;62.80;;;;;;5040669;28;45175;-75
2022/08/13 04:45:59;;;;;;;4.00;1.35;;;19.50;62.70;;;;;;5024022;28;46348;-75
2022/08/13 04:48:28;;;;;;;2.83;1.73;;;20.30;67.80;;;;;;5035917;28;45238;-75
2022/08/13 04:50:55;;;;;;;4.75;1.58;;;20.70;60.70;;;;;;5051636;27;45326;-74
2022/08/13 04:53:25;;;;;;;3.17;1.65;;;20.50;59.60;;;;;;5064323;28;45471;-75
2022/08/13 04:55:52;;;;;;;5.03;1.70;;;20.00;60.40;;;;;;5049992;28;46440;-75
2022/08/13 04:58:19;;;;;;;9.43;1.80;;;19.60;61.70;;;;;;5043917;27;45238;-75
2022/08/13 05:00:48;;;;;;;3.22;1.50;;;18.70;64.20;;;;;;5049931;27;45191;-75
2022/08/13 05:03:17;;;;;;;3.53;1.83;;;17.90;68.10;;;;;;5064377;28;45399;-75
2022/08/13 05:05:45;;;;;;;3.00;1.70;;;17.70;68.40;;;;;;5064290;28;46714;-76
2022/08/13 05:08:15;;;;;;;5.35;1.63;;;18.80;67.40;;;;;;5064226;28;45072;-75
2022/08/13 05:10:42;;;;;;;7.35;1.58;;;19.40;63.90;;;;;;5064244;28;45224;-75
2022/08/13 05:13:27;;;;;;;6.15;1.77;;;19.90;62.40;;;;;;5064443;28;45575;-75
2022/08/13 05:15:57;;;;;;;5.35;1.40;;;20.20;60.80;;;;;;5064088;27;46853;-75
2022/08/13 05:18:24;;;;;;;7.57;1.70;;;20.20;62.70;;;;;;5063968;28;45165;-75
2022/08/13 05:20:53;;;;;;;4.68;1.60;;;20.30;61.00;;;;;;5064246;28;45170;-75
2022/08/13 05:23:20;;;;;;;6.32;2.00;;;20.40;60.30;;;;;;5064324;28;45373;-75
2022/08/13 05:25:47;;;;;;;2.67;1.70;;;20.20;61.20;;;;;;5063870;28;48057;-75
2022/08/13 05:28:16;;;;;;;3.90;1.50;;;20.30;63.10;;;;;;5063681;27;45220;-75
2022/08/13 05:30:43;;;;;;;1.67;1.40;;;20.90;61.70;;;;;;5063860;28;45305;-75
2022/08/13 05:33:16;;;;;;;2.05;1.02;;;21.10;61.10;;;;;;5064407;28;45166;-75
2022/08/13 05:39:05;;;;;;;5.22;1.77;;;21.70;58.90;;;;;;5040897;28;45407;-75
2022/08/13 05:41:49;;;;;;;6.45;1.80;;;21.50;59.20;;;;;;5044110;28;45315;-74
2022/08/13 05:44:54;;;;;;;4.97;1.60;;;21.50;59.60;;;;;;5043980;28;45300;-75
2022/08/13 05:47:20;;;;;;;1.75;1.27;;;21.70;58.90;;;;;;5042376;27;46986;-76
2022/08/13 05:49:52;;;;;;;4.22;1.55;;;22.10;57.70;;;;;;5043715;28;45340;-75
2022/08/13 05:52:19;;;;;;;3.33;1.45;;;22.20;57.80;;;;;;5043728;28;45339;-75
2022/08/13 05:54:46;;;;;;;2.78;1.58;;;22.40;56.60;;;;;;5044040;27;45287;-75
2022/08/13 05:57:14;;;;;;;2.63;1.40;;;22.50;57.00;;;;;;5043678;28;46236;-75
2022/08/13 06:05:10;;;;;;;7.90;2.15;;;21.80;57.90;;;;;;5042932;28;45182;-75
2022/08/13 06:07:41;;;;;;;10.43;1.75;;;20.80;60.00;;;;;;5043058;28;46318;-75
2022/08/13 06:10:09;;;;;;;4.90;2.00;;;20.60;61.30;;;;;;5043529;28;45284;-76
2022/08/13 06:12:36;;;;;;;9.20;2.03;;;20.70;61.20;;;;;;5043286;28;45189;-75
2022/08/13 06:15:06;;;;;;;7.77;1.90;;;20.80;60.50;;;;;;5033611;28;45272;-75
2022/08/13 06:17:35;;;;;;;4.55;1.90;;;20.90;61.70;;;;;;5023442;28;46266;-75
2022/08/13 06:20:04;;;;;;;2.30;1.80;;;21.60;60.30;;;;;;5023457;28;45925;-75
2022/08/13 06:22:34;;;;;;;2.05;1.50;;;22.00;60.10;;;;;;5023742;28;45425;-76
2022/08/13 06:25:05;;;;;;;4.85;1.33;;;22.20;60.40;;;;;;5023385;28;45248;-76
2022/08/13 06:27:32;;;;;;;3.95;1.85;;;22.40;58.40;;;;;;5037389;27;45606;-75
2022/08/13 06:30:00;;;;;;;4.75;1.55;;;22.50;58.60;;;;;;5043368;27;45220;-75
2022/08/13 06:32:28;;;;;;;4.93;1.58;;;22.60;59.40;;;;;;5043396;27;45125;-76
2022/08/13 06:34:55;;;;;;;3.05;1.60;;;22.60;59.80;;;;;;5043474;27;45548;-74
2022/08/13 06:37:22;;;;;;;2.40;1.63;;;22.70;58.80;;;;;;5042854;27;46624;-75
2022/08/13 06:39:52;;;;;;;1.85;1.50;;;22.70;58.00;;;;;;5043140;27;45363;-75
2022/08/13 06:42:20;;;;;;;4.00;1.40;;;22.70;58.70;;;;;;5043087;28;45154;-75
2022/08/13 06:44:48;;;;;;;2.83;1.48;;;22.70;58.50;;;;;;5042786;28;45244;-75
2022/08/13 06:47:15;;;;;;;4.70;1.25;;;22.70;58.10;;;;;;5042716;27;46862;-75
2022/08/13 06:49:42;;;;;;;1.95;1.27;;;22.80;57.70;;;;;;5042884;28;45367;-75
2022/08/13 06:52:09;;;;;;;3.65;1.50;;;22.80;57.40;;;;;;5042862;28;45276;-75
2022/08/13 06:54:35;;;;;;;3.20;1.90;;;22.80;57.00;;;;;;5042865;28;45530;-75
2022/08/13 06:57:04;;;;;;;1.90;1.20;;;22.90;57.00;;;;;;5042765;27;47775;-75
2022/08/13 06:59:33;;;;;;;2.38;1.30;;;22.90;57.50;;;;;;5042536;28;45088;-75
2022/08/13 07:02:02;;;;;;;2.63;1.40;;;23.00;57.20;;;;;;5042716;27;45272;-75
2022/08/13 07:04:29;;;;;;;2.55;1.60;;;23.00;59.80;;;;;;5042916;27;45541;-75
2022/08/13 07:06:56;;;;;;;1.52;1.10;;;23.00;58.50;;;;;;5042348;28;48093;-76
2022/08/13 07:09:24;;;;;;;3.28;1.48;;;23.10;57.20;;;;;;5042893;28;45241;-76
2022/08/13 07:11:51;;;;;;;6.13;1.30;;;23.10;59.00;;;;;;5042822;28;45195;-75
2022/08/13 07:14:19;;;;;;;4.15;1.17;;;23.00;57.10;;;;;;5042771;28;45229;-76
2022/08/13 07:16:58;;;;;;;2.88;1.10;;;23.10;57.30;;;;;;5042419;28;47796;-76
2022/08/13 07:19:25;;;;;;;2.25;1.35;;;23.10;57.30;;;;;;5042668;27;45285;-76
2022/08/13 07:21:52;;;;;;;2.58;1.20;;;23.10;57.50;;;;;;5042887;28;45399;-76
2022/08/13 07:24:19;;;;;;;1.55;1.30;;;23.20;57.40;;;;;;5042641;28;45432;-76
2022/08/13 07:26:47;;;;;;;7.45;1.20;;;23.20;57.40;;;;;;5042487;28;45601;-75
2022/08/13 07:29:14;;;;;;;3.55;1.23;;;23.20;58.10;;;;;;5042197;27;45285;-76
2022/08/13 07:31:42;;;;;;;3.65;1.13;;;23.20;60.30;;;;;;5048108;28;45252;-75
2022/08/13 07:34:09;;;;;;;5.60;1.20;;;23.20;59.30;;;;;;5062379;28;45282;-76
2022/08/13 07:36:38;;;;;;;1.63;1.30;;;23.20;61.70;;;;;;5056835;28;46876;-75
2022/08/13 07:39:08;;;;;;;1.77;1.02;;;23.20;62.50;;;;;;5042485;28;45238;-75
2022/08/13 07:41:59;;;;;;;3.45;1.00;;;23.20;57.90;;;;;;5042292;28;45196;-76
2022/08/13 07:44:25;;;;;;;1.58;1.00;;;23.20;63.60;;;;;;5042315;28;45185;-75
2022/08/13 07:46:54;;;;;;;2.00;1.20;;;23.20;60.30;;;;;;5041805;28;46713;-75
2022/08/13 07:49:22;;;;;;;2.33;1.02;;;23.20;61.80;;;;;;5041760;28;45892;-75
2022/08/13 07:51:50;;;;;;;5.70;1.05;;;23.30;61.60;;;;;;5042121;28;45217;-75
2022/08/13 07:54:17;;;;;;;3.60;1.35;;;23.30;57.40;;;;;;5041939;28;45230;-75
2022/08/13 07:56:56;;;;;;;5.32;1.55;;;23.40;57.60;;;;;;5041647;28;47309;-75
2022/08/13 07:59:26;;;;;;;4.47;1.02;;;23.40;57.50;;;;;;5041652;28;45465;-75
2022/08/13 08:01:56;;;;;;;1.80;1.15;;;23.40;57.60;;;;;;5042000;28;45297;-75
2022/08/13 08:04:25;;;;;;;2.05;1.05;;;23.40;58.80;;;;;;5042298;28;45393;-76
2022/08/13 08:06:56;;;;;;;1.55;1.10;;;23.40;57.50;;;;;;5041868;28;47254;-75
2022/08/13 08:09:30;;;;;;;1.90;1.30;;;23.50;57.70;;;;;;5038599;28;45238;-75
2022/08/13 08:15:22;;;;;;;2.05;1.00;;;23.50;57.60;;;;;;5045327;28;45246;-76
2022/08/13 08:21:05;;;;;;;1.30;1.00;;;23.50;57.70;;;;;;5042140;27;45271;-75
2022/08/13 08:23:34;;;;;;;1.52;1.35;;;23.50;57.60;;;;;;5044791;28;45236;-75
2022/08/13 08:26:37;;;;;;;1.13;0.88;;;23.50;57.70;;;;;;5045073;28;45352;-76
2022/08/13 08:29:09;;;;;;;2.95;1.17;;;23.50;57.60;;;;;;5044224;28;47378;-75
2022/08/13 08:31:39;;;;;;;1.33;0.90;;;23.50;58.00;;;;;;5044721;28;45377;-75
2022/08/13 08:34:07;;;;;;;3.20;1.00;;;23.50;57.90;;;;;;5044655;28;45306;-76
2022/08/13 08:36:39;;;;;;;1.38;1.10;;;23.50;58.80;;;;;;5044606;28;45112;-76
2022/08/13 08:45:28;;;;;;;2.67;0.98;;;23.60;57.70;;;;;;5041891;28;45317;-76
2022/08/13 08:48:28;;;;;;;1.17;0.88;;;23.60;58.80;;;;;;5044764;28;45416;-76
2022/08/13 08:50:55;;;;;;;0.77;0.77;;;23.50;59.00;;;;;;5044297;28;47923;-75
2022/08/13 08:53:44;;;;;;;0.75;0.70;;;23.50;59.40;;;;;;5044572;28;45162;-75
2022/08/13 08:56:18;;;;;;;0.77;0.77;;;23.50;60.30;;;;;;5026140;28;45177;-75
2022/08/13 08:58:45;;;;;;;0.80;0.80;;;23.50;59.00;;;;;;5024719;28;45105;-75
2022/08/13 09:01:24;;;;;;;2.33;0.80;;;23.50;59.50;;;;;;5024616;27;46971;-75
2022/08/13 09:03:56;;;;;;;1.00;0.90;;;23.50;59.20;;;;;;5024453;28;45361;-75
2022/08/13 09:06:24;;;;;;;1.05;0.77;;;23.60;59.40;;;;;;5024777;27;45187;-75
2022/08/13 09:08:53;;;;;;;1.08;0.90;;;23.60;57.70;;;;;;5024225;28;45538;-75
2022/08/13 09:11:20;;;;;;;1.00;0.80;;;23.60;60.20;;;;;;5032650;28;46980;-76
2022/08/13 09:13:49;;;;;;;0.90;0.70;;;23.50;61.60;;;;;;5044424;28;45419;-75
2022/08/13 09:16:17;;;;;;;2.00;0.93;;;23.50;61.70;;;;;;5043634;28;45272;-76
2022/08/13 09:18:45;;;;;;;1.10;0.80;;;23.50;59.90;;;;;;5024060;28;45390;-75
2022/08/13 09:21:12;;;;;;;1.98;0.70;;;23.50;60.20;;;;;;5042930;28;47345;-75
2022/08/13 09:23:45;;;;;;;0.88;0.68;;;23.50;60.10;;;;;;5050121;28;45258;-76
2022/08/13 09:26:17;;;;;;;3.38;0.90;;;23.60;59.70;;;;;;5062557;28;45243;-75
2022/08/13 09:28:45;;;;;;;0.80;0.80;;;23.50;61.80;;;;;;5063610;28;45094;-75
2022/08/13 09:31:48;;;;;;;0.70;0.70;;;23.60;60.70;;;;;;5063897;28;46643;-75
2022/08/13 09:34:15;;;;;;;0.95;0.80;;;23.50;59.70;;;;;;5056618;28;45319;-75
2022/08/13 09:37:18;;;;;;;0.90;0.80;;;23.50;60.80;;;;;;5048864;28;45272;-75
2022/08/13 09:39:51;;;;;;;1.52;0.93;;;23.50;60.60;;;;;;5040876;28;45489;-75
2022/08/13 09:42:24;;;;;;;1.23;0.73;;;23.60;60.10;;;;;;5023781;28;48020;-75
2022/08/13 09:44:54;;;;;;;0.65;0.65;;;23.60;60.30;;;;;;5023733;28;45375;-75
2022/08/13 09:47:20;;;;;;;0.63;0.63;;;23.60;60.20;;;;;;5035279;28;45220;-76
2022/08/13 09:49:50;;;;;;;1.33;0.98;;;23.60;61.70;;;;;;5043649;28;45167;-75
2022/08/13 09:52:17;;;;;;;3.17;0.95;;;23.60;60.20;;;;;;5043596;28;47282;-75
2022/08/13 09:54:45;;;;;;;1.10;0.80;;;23.60;60.10;;;;;;5043559;28;45322;-75
2022/08/13 09:57:11;;;;;;;0.82;0.60;;;23.60;60.10;;;;;;5043897;28;45117;-75
2022/08/13 09:59:40;;;;;;;0.70;0.70;;;23.60;59.90;;;;;;5043742;28;45412;-76
2022/08/13 10:02:12;;;;;;;1.15;0.80;;;23.60;60.10;;;;;;5043294;28;48264;-75
2022/08/13 10:04:42;;;;;;;0.80;0.80;;;23.60;60.00;;;;;;5043497;28;45234;-76
2022/08/13 10:07:09;;;;;;;0.70;0.70;;;23.60;60.20;;;;;;5043908;28;45398;-74
2022/08/13 10:09:36;;;;;;;0.68;0.68;;;23.60;61.70;;;;;;5043406;28;45167;-75
2022/08/13 10:12:05;;;;;;;1.90;0.80;;;23.60;62.40;;;;;;5043088;28;46242;-75
2022/08/13 10:14:33;;;;;;;1.13;0.82;;;23.60;61.40;;;;;;5043328;28;45300;-75
2022/08/13 10:17:02;;;;;;;1.40;0.75;;;23.60;61.00;;;;;;5043620;28;45163;-75
2022/08/13 10:19:29;;;;;;;0.88;0.70;;;23.60;60.50;;;;;;5043414;28;45311;-75
2022/08/13 10:21:56;;;;;;;1.25;0.90;;;23.60;60.50;;;;;;5043044;28;46861;-75
2022/08/13 10:24:22;;;;;;;0.93;0.60;;;23.60;61.40;;;;;;5054573;28;46341;-75
2022/08/13 10:26:49;;;;;;;0.73;0.70;;;23.60;61.30;;;;;;5063326;28;45251;-75
2022/08/13 10:29:16;;;;;;;2.55;0.73;;;23.60;61.70;;;;;;5063027;28;45408;-75
2022/08/13 10:31:43;;;;;;;1.05;0.65;;;23.60;60.50;;;;;;5062975;28;46570;-75
2022/08/13 10:34:11;;;;;;;0.75;0.63;;;23.60;60.30;;;;;;5062816;28;45234;-75
2022/08/13 10:36:42;;;;;;;0.88;0.70;;;23.60;60.40;;;;;;5063448;28;45176;-75
2022/08/13 10:39:09;;;;;;;1.70;0.90;;;23.70;60.00;;;;;;5063413;28;45215;-75
2022/08/13 10:42:02;;;;;;;0.93;0.82;;;23.60;61.00;;;;;;5062921;28;47513;-75
2022/08/13 10:44:29;;;;;;;0.88;0.70;;;23.60;59.90;;;;;;5062879;28;45419;-75
2022/08/13 10:46:56;;;;;;;9.57;1.08;;;23.60;61.10;;;;;;5038536;28;45413;-72
2022/08/13 10:49:24;;;;;;;17.50;2.50;;;23.60;60.70;;;;;;5046444;28;45489;-74
2022/08/13 10:51:51;;;;;;;18.42;2.50;;;23.70;60.70;;;;;;5040296;28;46567;-74
2022/08/13 10:54:19;;;;;;;14.88;2.55;;;23.70;60.50;;;;;;5037232;27;45343;-74
2022/08/13 10:56:46;;;;;;;5.22;1.02;;;23.70;64.90;;;;;;5040342;27;45597;-74
2022/08/13 10:59:13;;;;;;;1.50;1.10;;;23.60;65.70;;;;;;5040990;28;45556;-74
2022/08/13 11:01:40;;;;;;;4.10;0.82;;;23.60;63.90;;;;;;5040357;27;48366;-74
2022/08/13 11:04:09;;;;;;;2.53;0.90;;;23.60;63.00;;;;;;5040042;28;45252;-75
2022/08/13 11:06:38;;;;;;;3.95;1.10;;;23.60;62.40;;;;;;5039999;27;45334;-74
2022/08/13 11:09:07;;;;;;;2.17;0.80;;;23.70;62.60;;;;;;5039910;27;45589;-75
2022/08/13 11:11:34;;;;;;;4.53;0.98;;;23.70;61.70;;;;;;5040354;27;48205;-74
2022/08/13 11:14:01;;;;;;;2.63;0.98;;;23.70;61.60;;;;;;5039784;28;45497;-74
2022/08/13 11:16:56;;;;;;;1.48;0.80;;;23.70;61.50;;;;;;5040480;28;45521;-74
2022/08/13 11:19:26;;;;;;;4.13;1.30;;;23.70;61.20;;;;;;5046396;28;45280;-75
2022/08/13 11:21:55;;;;;;;6.90;1.40;;;23.70;61.50;;;;;;5049587;28;47738;-74
2022/08/13 11:24:22;;;;;;;3.40;1.00;;;23.70;61.40;;;;;;5044274;28;45283;-74
2022/08/13 11:26:49;;;;;;;1.63;0.80;;;23.80;61.30;;;;;;5041622;27;45464;-75
2022/08/13 11:29:16;;;;;;;2.63;1.25;;;23.80;62.20;;;;;;5050368;28;45271;-75
2022/08/13 11:31:44;;;;;;;1.05;0.80;;;23.70;61.90;;;;;;5042796;28;46612;-75
2022/08/13 11:34:11;;;;;;;1.05;1.00;;;23.70;63.40;;;;;;5041123;27;45348;-74
2022/08/13 11:36:38;;;;;;;1.35;1.00;;;23.60;68.10;;;;;;5041180;28;45446;-75
2022/08/13 11:39:07;;;;;;;1.77;0.95;;;23.60;67.40;;;;;;5041178;28;45586;-74
2022/08/13 11:41:34;;;;;;;2.55;1.40;;;23.60;67.80;;;;;;5061446;28;45719;-75
2022/08/13 11:44:02;;;;;;;2.53;1.40;;;23.60;64.70;;;;;;5049961;28;45442;-70
2022/08/13 11:46:29;;;;;;;5.20;2.80;;;23.60;63.20;;;;;;5039502;28;45368;-70
2022/08/13 11:48:56;;;;;;;3.60;1.80;;;23.80;61.50;;;;;;5040287;28;45625;-69
2022/08/13 11:51:23;;;;;;;5.60;2.20;;;24.00;60.20;;;;;;5040502;28;45567;-69
2022/08/13 11:53:50;;;;;;;4.40;2.00;;;24.10;60.50;;;;;;5040290;28;46603;-69
2022/08/13 11:56:19;;;;;;;2.78;1.58;;;24.20;60.60;;;;;;5039623;28;45341;-69
2022/08/13 11:58:46;;;;;;;3.13;1.65;;;24.20;60.50;;;;;;5040545;28;45566;-68
2022/08/13 12:01:16;;;;;;;4.57;1.92;;;24.20;60.40;;;;;;5040388;28;47541;-68
2022/08/13 12:03:43;;;;;;;5.05;1.75;;;24.20;60.30;;;;;;5039798;27;45875;-68
2022/08/13 12:06:10;;;;;;;3.67;1.73;;;24.30;60.10;;;;;;5038512;28;45509;-68
2022/08/13 12:08:37;;;;;;;2.60;1.52;;;24.30;60.20;;;;;;5038492;27;45391;-68
2022/08/13 12:11:04;;;;;;;4.57;1.65;;;24.30;60.20;;;;;;5040040;27;48499;-68
2022/08/13 12:13:32;;;;;;;3.65;1.85;;;24.30;60.30;;;;;;5039957;28;45277;-69
2022/08/13 12:16:00;;;;;;;5.85;2.30;;;24.30;60.20;;;;;;5036751;27;45396;-68
2022/08/13 12:18:27;;;;;;;4.60;2.13;;;24.40;60.00;;;;;;5047993;27;45396;-68
2022/08/13 12:20:54;;;;;;;4.88;2.45;;;24.40;59.80;;;;;;5039132;28;46170;-69
2022/08/13 12:23:21;;;;;;;6.25;2.42;;;24.40;59.90;;;;;;5037821;27;45426;-69
2022/08/13 12:25:47;;;;;;;5.43;2.50;;;24.40;59.80;;;;;;5036500;28;45544;-68
2022/08/13 12:28:17;;;;;;;5.85;2.65;;;24.40;59.70;;;;;;5036531;28;45776;-69
2022/08/13 12:30:47;;;;;;;23.70;4.35;;;24.40;59.80;;;;;;5035983;28;46454;-70
2022/08/13 12:33:14;;;;;;;24.55;4.18;;;24.40;59.80;;;;;;5038701;28;45706;-69
2022/08/13 12:35:41;;;;;;;9.90;3.35;;;24.40;59.80;;;;;;5039676;28;45376;-68
2022/08/13 12:38:09;;;;;;;9.13;3.28;;;24.40;59.60;;;;;;5039075;27;46342;-70
2022/08/13 12:40:37;;;;;;;7.25;2.33;;;24.40;59.50;;;;;;5037946;28;45368;-69
2022/08/13 12:43:04;;;;;;;9.93;2.38;;;24.40;59.60;;;;;;5039255;28;45459;-69
2022/08/13 12:45:32;;;;;;;7.03;3.03;;;24.40;58.60;;;;;;5036524;27;45389;-69
2022/08/13 12:48:05;;;;;;;9.70;3.00;;;24.40;58.80;;;;;;5037296;28;45391;-69
2022/08/13 12:50:32;;;;;;;7.15;3.00;;;24.40;59.10;;;;;;5032054;27;45413;-68
2022/08/13 12:53:00;;;;;;;10.90;2.70;;;24.40;60.10;;;;;;5037360;27;45410;-71
2022/08/13 12:55:27;;;;;;;10.80;3.90;;;24.40;59.40;;;;;;5037329;28;45395;-70
2022/08/13 12:57:55;;;;;;;12.77;3.85;;;24.40;61.40;;;;;;5038908;28;45289;-68
2022/08/13 13:00:22;;;;;;;12.55;2.97;;;24.40;61.90;;;;;;5039199;28;48063;-68
2022/08/13 13:02:49;;;;;;;15.18;3.33;;;24.50;61.40;;;;;;5038202;27;46023;-69
2022/08/13 13:05:17;;;;;;;8.00;2.90;;;24.70;61.20;;;;;;5036084;28;45580;-68
2022/08/13 13:07:44;;;;;;;10.52;2.85;;;24.80;60.90;;;;;;5036000;27;45313;-69
2022/08/13 13:10:11;;;;;;;5.40;2.85;;;24.90;60.60;;;;;;5036915;27;45458;-68
2022/08/13 13:12:38;;;;;;;12.50;3.20;;;25.10;61.10;;;;;;5034952;27;45345;-68
2022/08/13 13:15:07;;;;;;;9.98;3.50;;;25.30;61.40;;;;;;5036477;27;45463;-68
2022/08/13 13:17:35;;;;;;;8.48;3.13;;;25.40;61.20;;;;;;5036598;27;45478;-68
2022/08/13 13:20:02;;;;;;;7.80;3.35;;;25.50;61.50;;;;;;5037675;28;45404;-68
2022/08/13 13:22:30;;;;;;;11.55;3.95;;;25.60;62.10;;;;;;5038003;27;45565;-70
2022/08/13 13:24:57;;;;;;;9.07;3.67;;;25.70;62.10;;;;;;5038315;28;45456;-68
2022/08/13 13:27:23;;;;;;;9.38;3.58;;;25.80;61.50;;;;;;5037577;27;45335;-70
2022/08/13 13:29:50;;;;;;;11.10;4.00;;;25.90;61.50;;;;;;5038255;27;46587;-69